Погода Гостеневона неделю

Тверская область, Россия

22 - 28 мая
  • 22мая
    Сегодня
    +7°
    +22°
    Ясно и безоблачно
    ВремяПогодаТемператураВлажностьДавлениеВетер, м/сВероятность осадков
    00:00Ясно и безоблачно+12°C50 %751 мм1.5 м/с2 %
    03:00Ясно и безоблачно+9°C59 %751 мм1.3 м/с2 %
    06:00Ясно и безоблачно+9°C64 %752 мм1.3 м/с2 %
    09:00Ясно и безоблачно+16°C53 %753 мм2.5 м/с2 %
    12:00Ясно и безоблачно+20°C36 %753 мм3.5 м/с2 %
    15:00Ясно и безоблачно+21°C33 %753 мм3.7 м/с2 %
    18:00Ясно и безоблачно+21°C36 %753 мм3.0 м/с2 %
    21:00Ясно и безоблачно+15°C54 %753 мм1.7 м/с2 %
  • 23мая
    Четверг
    +5°
    +20°
    Небольшая облачность
    ВремяПогодаТемператураВлажностьДавлениеВетер, м/сВероятность осадков
    00:00Ясно и безоблачно+11°C52 %754 мм2.0 м/с2 %
    03:00Ясно и безоблачно+8°C61 %755 мм1.4 м/с2 %
    06:00Ясно и безоблачно+8°C64 %756 мм1.5 м/с2 %
    09:00Ясно и безоблачно+14°C47 %757 мм2.6 м/с2 %
    12:00Ясно и безоблачно+18°C36 %758 мм3.6 м/с2 %
    15:00Небольшая облачность+19°C34 %757 мм3.6 м/с2 %
    18:00Ясно и безоблачно+19°C36 %757 мм3.1 м/с2 %
    21:00Ясно и безоблачно+15°C52 %757 мм1.6 м/с2 %
  • 24мая
    Пятница
    +7°
    +21°
    Ясно и безоблачно
    ВремяПогодаТемператураВлажностьДавлениеВетер, м/сВероятность осадков
    00:00Практически безоблачно+10°C57 %758 мм1.4 м/с2 %
    03:00Небольшая облачность+7°C67 %759 мм1.0 м/с2 %
    06:00Ясно и безоблачно+8°C70 %760 мм0.8 м/с2 %
    09:00Ясно и безоблачно+15°C44 %760 мм1.8 м/с2 %
    12:00Ясно и безоблачно+19°C38 %760 мм2.9 м/с2 %
    15:00Ясно и безоблачно+20°C36 %760 мм3.2 м/с2 %
    18:00Ясно и безоблачно+21°C39 %759 мм2.5 м/с2 %
    21:00Ясно и безоблачно+15°C62 %758 мм1.4 м/с2 %
  • 25мая
    Суббота
    +8°
    +23°
    Практически безоблачно
    ВремяПогодаТемператураВлажностьДавлениеВетер, м/сВероятность осадков
    00:00Ясно и безоблачно+10°C61 %758 мм1.4 м/с2 %
    03:00Ясно и безоблачно+8°C71 %758 мм1.2 м/с2 %
    06:00Ясно и безоблачно+9°C76 %758 мм1.2 м/с2 %
    09:00Ясно и безоблачно+16°C54 %758 мм2.2 м/с2 %
    12:00Ясно и безоблачно+21°C39 %757 мм3.0 м/с2 %
    15:00Практически безоблачно+23°C36 %756 мм3.5 м/с2 %
    18:00Ясно и безоблачно+23°C38 %754 мм2.7 м/с2 %
    21:00Ясно и безоблачно+18°C58 %754 мм1.5 м/с2 %
Мы используем cookies
Соглашаюсь